Hlavní strana
METAR-TAF:

METAR-TAF

Letiště :

Yap, Mikronésie

zeměpisná šířka: 09-29N, zeměpisná délka: 138-05E, výška: 28 m

Aktuální stav počasí

Zpráva byla vytvořena před 21 minutami, v 08:50 UTC
vítr z různých směrů 4 kt
Teplota 28°C
Vlhkost vzduchu 79%
Tlak 1010 hPa
Viditelnost: 19.3 km
Skoro jasno ve výšce 1700 ft
Oblačno až skoro zataženo ve výšce 30000 ft

METAR: PTYA 150850Z VRB04KT 12SM FEW017 BKN300 28/24 A2982 RMK SLP100 8/101 T02800236 52017

Čas: 19:11 (09:11 UTC)

Předpověď počasí

Zpráva byla vytvořena před 3 hodinami a 50 minutami, v 05:21 UTC
Předpověď platná od 15 v 06 UTC do 16 v 06 UTC
Severoseverovýchodní vítr 11 kt
Viditelnost: 10 km
Polojasno ve výšce 1800 ft
Od 15 v 1100 UTC
Severoseverovýchodní vítr 8 kt
Viditelnost: 10 km
Polojasno ve výšce 1600 ft
Polojasno ve výšce 12000 ft
přeháňky v blízkosti

TAF: PTYA 150521Z 1506/1606 03011KT P6SM SCT018 FM151100 03008KT P6SM VCSH SCT016 SCT120

Stav a předpovědi počasí z více než 4 000 letišť (zprávy METAR a TAF).

Červené a žluté tečky na mapě představují dostupné meteorologické stanice.

Když kurzor umístíte na tečku, zobrazí se název stanice.

Pak kliknutím zobrazíte stav a předpověď počasí.

Chcete-li změnit mapu, kliknutím na zelené tlačítko se znaménkem +mapu přiblížíte, kliknutím na zelené tlačítko se znaménkem – mapu oddálíte a kliknutím na zelené šipky přejdete na sousední mapy.


METAR-TAF: